sensor_id;sensor_type;location;lat;lon;timestamp;P1;durP1;ratioP1;P2;durP2;ratioP2
56599;SDS011;51832;48.152;11.530;2023-02-01T00:02:45;5.38;;;2.40;;
56599;SDS011;51832;48.152;11.530;2023-02-01T00:07:48;4.93;;;2.63;;
56599;SDS011;51832;48.152;11.530;2023-02-01T00:12:49;2.95;;;2.03;;
56599;SDS011;51832;48.152;11.530;2023-02-01T00:17:53;3.65;;;2.13;;
56599;SDS011;51832;48.152;11.530;2023-02-01T00:22:55;4.50;;;2.30;;
56599;SDS011;51832;48.152;11.530;2023-02-01T00:27:55;3.25;;;2.20;;
56599;SDS011;51832;48.152;11.530;2023-02-01T00:32:58;2.80;;;1.83;;
56599;SDS011;51832;48.152;11.530;2023-02-01T00:37:59;3.20;;;2.28;;
56599;SDS011;51832;48.152;11.530;2023-02-01T00:43:00;4.20;;;2.78;;
56599;SDS011;51832;48.152;11.530;2023-02-01T00:48:00;3.65;;;2.45;;
56599;SDS011;51832;48.152;11.530;2023-02-01T00:53:01;4.53;;;2.83;;
56599;SDS011;51832;48.152;11.530;2023-02-01T00:58:02;5.13;;;3.10;;
56599;SDS011;51832;48.152;11.530;2023-02-01T01:03:03;3.45;;;2.53;;
56599;SDS011;51832;48.152;11.530;2023-02-01T01:08:17;4.53;;;2.95;;
56599;SDS011;51832;48.152;11.530;2023-02-01T01:13:18;4.47;;;2.88;;
56599;SDS011;51832;48.152;11.530;2023-02-01T01:18:18;7.40;;;3.80;;
56599;SDS011;51832;48.152;11.530;2023-02-01T01:23:19;6.03;;;2.88;;
56599;SDS011;51832;48.152;11.530;2023-02-01T01:28:20;6.68;;;3.28;;
56599;SDS011;51832;48.152;11.530;2023-02-01T01:33:20;6.15;;;3.53;;
56599;SDS011;51832;48.152;11.530;2023-02-01T01:38:21;6.13;;;3.40;;
56599;SDS011;51832;48.152;11.530;2023-02-01T01:43:22;7.50;;;3.78;;
56599;SDS011;51832;48.152;11.530;2023-02-01T01:48:24;6.35;;;3.22;;
56599;SDS011;51832;48.152;11.530;2023-02-01T01:53:33;6.22;;;3.65;;
56599;SDS011;51832;48.152;11.530;2023-02-01T01:58:43;6.20;;;3.15;;
56599;SDS011;51832;48.152;11.530;2023-02-01T02:03:44;7.18;;;4.70;;
56599;SDS011;51832;48.152;11.530;2023-02-01T02:08:47;8.98;;;4.47;;
56599;SDS011;51832;48.152;11.530;2023-02-01T02:13:49;7.55;;;4.28;;
56599;SDS011;51832;48.152;11.530;2023-02-01T02:19:12;8.35;;;4.63;;
56599;SDS011;51832;48.152;11.530;2023-02-01T02:46:36;7.13;;;4.15;;
56599;SDS011;51832;48.152;11.530;2023-02-01T02:52:02;5.88;;;3.75;;
56599;SDS011;51832;48.152;11.530;2023-02-01T02:57:29;6.32;;;3.70;;
56599;SDS011;51832;48.152;11.530;2023-02-01T03:02:53;7.70;;;4.13;;
56599;SDS011;51832;48.152;11.530;2023-02-01T03:08:20;6.57;;;3.95;;
56599;SDS011;51832;48.152;11.530;2023-02-01T03:18:51;7.45;;;4.00;;
56599;SDS011;51832;48.152;11.530;2023-02-01T03:23:58;4.88;;;3.25;;
56599;SDS011;51832;48.152;11.530;2023-02-01T03:29:05;5.40;;;3.13;;
56599;SDS011;51832;48.152;11.530;2023-02-01T03:34:12;4.75;;;3.15;;
56599;SDS011;51832;48.152;11.530;2023-02-01T03:39:19;5.43;;;3.65;;
56599;SDS011;51832;48.152;11.530;2023-02-01T03:50:23;5.03;;;3.42;;
56599;SDS011;51832;48.152;11.530;2023-02-01T03:55:27;5.43;;;3.33;;
56599;SDS011;51832;48.152;11.530;2023-02-01T04:00:31;4.07;;;2.40;;
56599;SDS011;51832;48.152;11.530;2023-02-01T04:05:32;4.43;;;3.38;;
56599;SDS011;51832;48.152;11.530;2023-02-01T04:10:34;5.32;;;2.92;;
56599;SDS011;51832;48.152;11.530;2023-02-01T04:15:34;6.45;;;3.38;;
56599;SDS011;51832;48.152;11.530;2023-02-01T04:20:35;6.75;;;3.22;;
56599;SDS011;51832;48.152;11.530;2023-02-01T04:25:35;5.88;;;3.13;;
56599;SDS011;51832;48.152;11.530;2023-02-01T04:30:36;7.10;;;3.60;;
56599;SDS011;51832;48.152;11.530;2023-02-01T04:35:36;6.20;;;3.20;;
56599;SDS011;51832;48.152;11.530;2023-02-01T04:40:37;6.53;;;3.05;;
56599;SDS011;51832;48.152;11.530;2023-02-01T04:45:37;4.78;;;3.15;;
56599;SDS011;51832;48.152;11.530;2023-02-01T04:50:38;5.43;;;3.08;;
56599;SDS011;51832;48.152;11.530;2023-02-01T04:55:38;5.90;;;3.67;;
56599;SDS011;51832;48.152;11.530;2023-02-01T05:00:39;4.70;;;3.05;;
56599;SDS011;51832;48.152;11.530;2023-02-01T05:05:40;5.32;;;3.47;;
56599;SDS011;51832;48.152;11.530;2023-02-01T05:10:40;6.43;;;4.03;;
56599;SDS011;51832;48.152;11.530;2023-02-01T05:15:41;7.15;;;3.50;;
56599;SDS011;51832;48.152;11.530;2023-02-01T05:20:41;7.22;;;4.28;;
56599;SDS011;51832;48.152;11.530;2023-02-01T05:25:42;9.02;;;4.40;;
56599;SDS011;51832;48.152;11.530;2023-02-01T05:30:43;7.00;;;3.90;;
56599;SDS011;51832;48.152;11.530;2023-02-01T05:35:43;6.32;;;3.78;;
56599;SDS011;51832;48.152;11.530;2023-02-01T05:40:44;7.43;;;3.60;;
56599;SDS011;51832;48.152;11.530;2023-02-01T05:45:51;7.68;;;3.70;;
56599;SDS011;51832;48.152;11.530;2023-02-01T05:50:52;6.97;;;4.13;;
56599;SDS011;51832;48.152;11.530;2023-02-01T05:55:52;6.40;;;4.10;;
56599;SDS011;51832;48.152;11.530;2023-02-01T06:00:53;9.38;;;4.90;;
56599;SDS011;51832;48.152;11.530;2023-02-01T06:05:53;6.00;;;3.45;;
56599;SDS011;51832;48.152;11.530;2023-02-01T06:11:01;7.00;;;4.32;;
56599;SDS011;51832;48.152;11.530;2023-02-01T06:16:04;6.63;;;4.13;;
56599;SDS011;51832;48.152;11.530;2023-02-01T06:21:06;5.63;;;3.40;;
56599;SDS011;51832;48.152;11.530;2023-02-01T06:26:08;5.80;;;3.63;;
56599;SDS011;51832;48.152;11.530;2023-02-01T06:31:09;5.63;;;3.72;;
56599;SDS011;51832;48.152;11.530;2023-02-01T06:36:10;6.75;;;3.88;;
56599;SDS011;51832;48.152;11.530;2023-02-01T06:41:15;8.27;;;4.32;;
56599;SDS011;51832;48.152;11.530;2023-02-01T06:46:17;6.18;;;3.97;;
56599;SDS011;51832;48.152;11.530;2023-02-01T06:51:21;6.07;;;3.70;;
56599;SDS011;51832;48.152;11.530;2023-02-01T06:56:23;6.40;;;3.78;;
56599;SDS011;51832;48.152;11.530;2023-02-01T07:01:25;6.20;;;3.17;;
56599;SDS011;51832;48.152;11.530;2023-02-01T07:06:26;6.45;;;3.70;;
56599;SDS011;51832;48.152;11.530;2023-02-01T07:11:26;5.75;;;3.35;;
56599;SDS011;51832;48.152;11.530;2023-02-01T07:16:28;5.70;;;3.40;;
56599;SDS011;51832;48.152;11.530;2023-02-01T07:21:28;4.72;;;3.13;;
56599;SDS011;51832;48.152;11.530;2023-02-01T07:26:29;4.28;;;2.80;;
56599;SDS011;51832;48.152;11.530;2023-02-01T07:31:30;3.45;;;2.53;;
56599;SDS011;51832;48.152;11.530;2023-02-01T07:36:31;4.97;;;2.70;;
56599;SDS011;51832;48.152;11.530;2023-02-01T07:41:33;3.70;;;2.45;;
56599;SDS011;51832;48.152;11.530;2023-02-01T07:46:33;3.85;;;2.60;;
56599;SDS011;51832;48.152;11.530;2023-02-01T07:51:34;4.65;;;2.50;;
56599;SDS011;51832;48.152;11.530;2023-02-01T07:56:35;6.57;;;2.33;;
56599;SDS011;51832;48.152;11.530;2023-02-01T08:01:35;5.50;;;2.67;;
56599;SDS011;51832;48.152;11.530;2023-02-01T08:06:36;3.92;;;2.83;;
56599;SDS011;51832;48.152;11.530;2023-02-01T08:11:36;3.08;;;2.33;;
56599;SDS011;51832;48.152;11.530;2023-02-01T08:16:37;2.70;;;2.00;;
56599;SDS011;51832;48.152;11.530;2023-02-01T08:21:39;3.88;;;2.40;;
56599;SDS011;51832;48.152;11.530;2023-02-01T08:26:39;3.88;;;2.35;;
56599;SDS011;51832;48.152;11.530;2023-02-01T08:31:40;3.22;;;2.13;;
56599;SDS011;51832;48.152;11.530;2023-02-01T08:36:41;3.30;;;2.42;;
56599;SDS011;51832;48.152;11.530;2023-02-01T08:41:42;2.70;;;1.95;;
56599;SDS011;51832;48.152;11.530;2023-02-01T08:47:02;2.72;;;1.88;;
56599;SDS011;51832;48.152;11.530;2023-02-01T08:52:04;3.95;;;2.55;;
56599;SDS011;51832;48.152;11.530;2023-02-01T08:57:04;4.35;;;2.30;;
56599;SDS011;51832;48.152;11.530;2023-02-01T09:02:05;3.42;;;2.28;;
56599;SDS011;51832;48.152;11.530;2023-02-01T09:07:07;2.88;;;2.00;;
56599;SDS011;51832;48.152;11.530;2023-02-01T09:12:09;4.00;;;2.50;;
56599;SDS011;51832;48.152;11.530;2023-02-01T09:17:09;3.35;;;2.25;;
56599;SDS011;51832;48.152;11.530;2023-02-01T09:22:10;3.40;;;2.55;;
56599;SDS011;51832;48.152;11.530;2023-02-01T09:27:11;2.47;;;1.58;;
56599;SDS011;51832;48.152;11.530;2023-02-01T09:32:11;2.38;;;1.92;;
56599;SDS011;51832;48.152;11.530;2023-02-01T09:37:12;3.40;;;1.95;;
56599;SDS011;51832;48.152;11.530;2023-02-01T09:47:20;2.90;;;1.85;;
56599;SDS011;51832;48.152;11.530;2023-02-01T09:52:26;5.93;;;3.00;;
56599;SDS011;51832;48.152;11.530;2023-02-01T10:02:58;2.87;;;1.63;;
56599;SDS011;51832;48.152;11.530;2023-02-01T10:08:06;2.50;;;1.80;;
56599;SDS011;51832;48.152;11.530;2023-02-01T10:29:18;2.47;;;2.10;;
56599;SDS011;51832;48.152;11.530;2023-02-01T10:34:21;3.70;;;2.10;;
56599;SDS011;51832;48.152;11.530;2023-02-01T10:39:26;4.18;;;2.50;;
56599;SDS011;51832;48.152;11.530;2023-02-01T10:44:28;2.80;;;2.33;;
56599;SDS011;51832;48.152;11.530;2023-02-01T10:49:37;4.13;;;2.28;;
56599;SDS011;51832;48.152;11.530;2023-02-01T10:54:43;3.35;;;2.03;;
56599;SDS011;51832;48.152;11.530;2023-02-01T10:59:43;4.20;;;2.13;;
56599;SDS011;51832;48.152;11.530;2023-02-01T11:04:44;3.88;;;2.40;;
56599;SDS011;51832;48.152;11.530;2023-02-01T11:09:48;3.40;;;2.22;;
56599;SDS011;51832;48.152;11.530;2023-02-01T11:14:50;5.32;;;2.95;;
56599;SDS011;51832;48.152;11.530;2023-02-01T11:20:01;5.50;;;2.35;;
56599;SDS011;51832;48.152;11.530;2023-02-01T11:25:12;3.10;;;2.47;;
56599;SDS011;51832;48.152;11.530;2023-02-01T11:30:16;5.32;;;2.65;;
56599;SDS011;51832;48.152;11.530;2023-02-01T11:35:20;3.72;;;2.45;;
56599;SDS011;51832;48.152;11.530;2023-02-01T12:01:38;3.33;;;2.72;;
56599;SDS011;51832;48.152;11.530;2023-02-01T12:07:03;6.53;;;2.95;;
56599;SDS011;51832;48.152;11.530;2023-02-01T12:44:11;5.55;;;3.05;;
56599;SDS011;51832;48.152;11.530;2023-02-01T12:49:25;3.78;;;2.60;;
56599;SDS011;51832;48.152;11.530;2023-02-01T13:10:37;8.68;;;2.28;;
56599;SDS011;51832;48.152;11.530;2023-02-01T13:15:45;2.55;;;2.03;;
56599;SDS011;51832;48.152;11.530;2023-02-01T13:20:51;2.97;;;2.10;;
56599;SDS011;51832;48.152;11.530;2023-02-01T13:25:58;3.15;;;2.22;;
56599;SDS011;51832;48.152;11.530;2023-02-01T13:41:30;4.07;;;3.17;;
56599;SDS011;51832;48.152;11.530;2023-02-01T13:46:44;3.70;;;2.17;;
56599;SDS011;51832;48.152;11.530;2023-02-01T13:51:48;4.93;;;2.45;;
56599;SDS011;51832;48.152;11.530;2023-02-01T13:56:51;4.75;;;2.88;;
56599;SDS011;51832;48.152;11.530;2023-02-01T14:01:52;2.88;;;2.42;;
56599;SDS011;51832;48.152;11.530;2023-02-01T14:06:53;3.93;;;2.40;;
56599;SDS011;51832;48.152;11.530;2023-02-01T14:11:54;3.60;;;2.20;;
56599;SDS011;51832;48.152;11.530;2023-02-01T14:32:21;5.00;;;2.55;;
56599;SDS011;51832;48.152;11.530;2023-02-01T14:37:32;3.83;;;2.00;;
56599;SDS011;51832;48.152;11.530;2023-02-01T14:52:44;4.00;;;2.28;;
56599;SDS011;51832;48.152;11.530;2023-02-01T14:57:48;2.92;;;2.00;;
56599;SDS011;51832;48.152;11.530;2023-02-01T15:02:52;4.75;;;2.40;;
56599;SDS011;51832;48.152;11.530;2023-02-01T15:07:54;3.73;;;1.90;;
56599;SDS011;51832;48.152;11.530;2023-02-01T15:12:54;5.47;;;2.45;;
56599;SDS011;51832;48.152;11.530;2023-02-01T15:17:56;3.95;;;1.95;;
56599;SDS011;51832;48.152;11.530;2023-02-01T15:28:03;4.28;;;2.15;;
56599;SDS011;51832;48.152;11.530;2023-02-01T15:38:27;2.72;;;1.90;;
56599;SDS011;51832;48.152;11.530;2023-02-01T15:43:33;3.28;;;2.00;;
56599;SDS011;51832;48.152;11.530;2023-02-01T15:48:44;3.53;;;2.13;;
56599;SDS011;51832;48.152;11.530;2023-02-01T15:53:57;4.28;;;1.83;;
56599;SDS011;51832;48.152;11.530;2023-02-01T15:59:15;3.10;;;1.70;;
56599;SDS011;51832;48.152;11.530;2023-02-01T16:09:21;5.68;;;2.50;;
56599;SDS011;51832;48.152;11.530;2023-02-01T16:14:36;2.58;;;1.25;;
56599;SDS011;51832;48.152;11.530;2023-02-01T16:19:36;3.20;;;1.60;;
56599;SDS011;51832;48.152;11.530;2023-02-01T16:24:37;3.58;;;1.58;;
56599;SDS011;51832;48.152;11.530;2023-02-01T16:29:37;3.28;;;1.58;;
56599;SDS011;51832;48.152;11.530;2023-02-01T16:34:37;3.88;;;1.70;;
56599;SDS011;51832;48.152;11.530;2023-02-01T16:39:38;3.83;;;1.98;;
56599;SDS011;51832;48.152;11.530;2023-02-01T16:44:38;4.72;;;2.15;;
56599;SDS011;51832;48.152;11.530;2023-02-01T16:49:40;4.45;;;1.70;;
56599;SDS011;51832;48.152;11.530;2023-02-01T16:54:41;5.93;;;2.10;;
56599;SDS011;51832;48.152;11.530;2023-02-01T16:59:42;4.18;;;2.92;;
56599;SDS011;51832;48.152;11.530;2023-02-01T17:04:46;4.60;;;2.00;;
56599;SDS011;51832;48.152;11.530;2023-02-01T17:09:48;5.45;;;2.70;;
56599;SDS011;51832;48.152;11.530;2023-02-01T17:14:48;3.33;;;1.97;;
56599;SDS011;51832;48.152;11.530;2023-02-01T17:19:50;4.38;;;1.90;;
56599;SDS011;51832;48.152;11.530;2023-02-01T17:24:53;4.65;;;2.13;;
56599;SDS011;51832;48.152;11.530;2023-02-01T17:29:53;7.57;;;1.92;;
56599;SDS011;51832;48.152;11.530;2023-02-01T17:34:56;2.27;;;1.40;;
56599;SDS011;51832;48.152;11.530;2023-02-01T17:39:57;4.80;;;1.80;;
56599;SDS011;51832;48.152;11.530;2023-02-01T17:45:02;7.22;;;2.22;;
56599;SDS011;51832;48.152;11.530;2023-02-01T17:50:18;4.53;;;1.60;;
56599;SDS011;51832;48.152;11.530;2023-02-01T17:55:19;6.32;;;1.88;;
56599;SDS011;51832;48.152;11.530;2023-02-01T18:00:23;3.92;;;1.63;;
56599;SDS011;51832;48.152;11.530;2023-02-01T18:05:28;6.00;;;2.70;;
56599;SDS011;51832;48.152;11.530;2023-02-01T18:10:43;6.03;;;2.00;;
56599;SDS011;51832;48.152;11.530;2023-02-01T18:15:44;6.70;;;1.90;;
56599;SDS011;51832;48.152;11.530;2023-02-01T18:20:44;5.72;;;1.70;;
56599;SDS011;51832;48.152;11.530;2023-02-01T18:25:45;3.78;;;1.85;;
56599;SDS011;51832;48.152;11.530;2023-02-01T18:30:47;5.38;;;2.20;;
56599;SDS011;51832;48.152;11.530;2023-02-01T18:35:50;6.32;;;2.33;;
56599;SDS011;51832;48.152;11.530;2023-02-01T18:40:51;4.33;;;1.90;;
56599;SDS011;51832;48.152;11.530;2023-02-01T18:45:52;3.30;;;1.80;;
56599;SDS011;51832;48.152;11.530;2023-02-01T18:50:54;5.25;;;1.70;;
56599;SDS011;51832;48.152;11.530;2023-02-01T18:55:58;5.35;;;2.20;;
56599;SDS011;51832;48.152;11.530;2023-02-01T19:01:04;4.90;;;2.17;;
56599;SDS011;51832;48.152;11.530;2023-02-01T19:06:07;2.88;;;1.77;;
56599;SDS011;51832;48.152;11.530;2023-02-01T19:11:08;4.53;;;1.70;;
56599;SDS011;51832;48.152;11.530;2023-02-01T19:16:10;4.63;;;1.85;;
56599;SDS011;51832;48.152;11.530;2023-02-01T19:21:12;4.40;;;1.75;;
56599;SDS011;51832;48.152;11.530;2023-02-01T19:26:13;6.57;;;1.90;;
56599;SDS011;51832;48.152;11.530;2023-02-01T19:31:15;6.55;;;2.63;;
56599;SDS011;51832;48.152;11.530;2023-02-01T19:36:16;6.00;;;2.10;;
56599;SDS011;51832;48.152;11.530;2023-02-01T19:41:16;4.93;;;1.80;;
56599;SDS011;51832;48.152;11.530;2023-02-01T19:46:17;5.93;;;2.22;;
56599;SDS011;51832;48.152;11.530;2023-02-01T19:51:17;7.30;;;2.72;;
56599;SDS011;51832;48.152;11.530;2023-02-01T19:56:18;5.43;;;1.88;;
56599;SDS011;51832;48.152;11.530;2023-02-01T20:01:18;6.88;;;2.05;;
56599;SDS011;51832;48.152;11.530;2023-02-01T20:06:18;7.25;;;1.92;;
56599;SDS011;51832;48.152;11.530;2023-02-01T20:11:19;5.03;;;2.28;;
56599;SDS011;51832;48.152;11.530;2023-02-01T20:16:19;4.40;;;1.88;;
56599;SDS011;51832;48.152;11.530;2023-02-01T20:21:21;2.95;;;1.52;;
56599;SDS011;51832;48.152;11.530;2023-02-01T20:31:25;5.85;;;2.10;;
56599;SDS011;51832;48.152;11.530;2023-02-01T20:36:28;7.60;;;2.58;;
56599;SDS011;51832;48.152;11.530;2023-02-01T20:41:29;4.32;;;1.48;;
56599;SDS011;51832;48.152;11.530;2023-02-01T20:46:30;4.60;;;1.92;;
56599;SDS011;51832;48.152;11.530;2023-02-01T20:51:30;3.85;;;2.05;;
56599;SDS011;51832;48.152;11.530;2023-02-01T20:56:31;5.07;;;1.60;;
56599;SDS011;51832;48.152;11.530;2023-02-01T21:01:31;3.15;;;1.75;;
56599;SDS011;51832;48.152;11.530;2023-02-01T21:06:31;4.00;;;1.67;;
56599;SDS011;51832;48.152;11.530;2023-02-01T21:11:32;3.63;;;1.42;;
56599;SDS011;51832;48.152;11.530;2023-02-01T21:16:32;6.13;;;1.35;;
56599;SDS011;51832;48.152;11.530;2023-02-01T21:21:33;8.30;;;2.05;;
56599;SDS011;51832;48.152;11.530;2023-02-01T21:26:33;4.35;;;1.67;;
56599;SDS011;51832;48.152;11.530;2023-02-01T21:31:40;5.63;;;1.65;;
56599;SDS011;51832;48.152;11.530;2023-02-01T21:36:41;3.75;;;1.83;;
56599;SDS011;51832;48.152;11.530;2023-02-01T21:41:42;4.43;;;1.75;;
56599;SDS011;51832;48.152;11.530;2023-02-01T21:47:02;3.30;;;1.40;;
56599;SDS011;51832;48.152;11.530;2023-02-01T21:52:02;6.07;;;1.58;;
56599;SDS011;51832;48.152;11.530;2023-02-01T21:57:03;3.58;;;1.38;;
56599;SDS011;51832;48.152;11.530;2023-02-01T22:02:14;5.10;;;2.10;;
56599;SDS011;51832;48.152;11.530;2023-02-01T22:07:16;5.90;;;1.90;;
56599;SDS011;51832;48.152;11.530;2023-02-01T22:12:16;5.53;;;1.50;;
56599;SDS011;51832;48.152;11.530;2023-02-01T22:17:17;7.32;;;1.60;;
56599;SDS011;51832;48.152;11.530;2023-02-01T22:22:17;4.47;;;1.50;;
56599;SDS011;51832;48.152;11.530;2023-02-01T22:27:18;4.78;;;1.27;;
56599;SDS011;51832;48.152;11.530;2023-02-01T22:32:18;2.63;;;1.40;;
56599;SDS011;51832;48.152;11.530;2023-02-01T22:37:18;4.40;;;1.33;;
56599;SDS011;51832;48.152;11.530;2023-02-01T22:42:19;4.47;;;1.95;;
56599;SDS011;51832;48.152;11.530;2023-02-01T22:47:19;4.20;;;1.35;;
56599;SDS011;51832;48.152;11.530;2023-02-01T22:52:20;3.85;;;1.45;;
56599;SDS011;51832;48.152;11.530;2023-02-01T22:57:20;4.78;;;1.60;;
56599;SDS011;51832;48.152;11.530;2023-02-01T23:02:20;5.50;;;2.05;;
56599;SDS011;51832;48.152;11.530;2023-02-01T23:07:21;7.00;;;1.67;;
56599;SDS011;51832;48.152;11.530;2023-02-01T23:12:21;4.25;;;1.65;;
56599;SDS011;51832;48.152;11.530;2023-02-01T23:17:22;5.30;;;1.92;;
56599;SDS011;51832;48.152;11.530;2023-02-01T23:22:23;3.13;;;1.48;;
56599;SDS011;51832;48.152;11.530;2023-02-01T23:27:24;3.38;;;1.70;;
56599;SDS011;51832;48.152;11.530;2023-02-01T23:32:26;3.70;;;1.50;;
56599;SDS011;51832;48.152;11.530;2023-02-01T23:37:26;5.57;;;1.67;;
56599;SDS011;51832;48.152;11.530;2023-02-01T23:42:27;6.55;;;1.70;;
56599;SDS011;51832;48.152;11.530;2023-02-01T23:47:27;3.88;;;1.27;;
56599;SDS011;51832;48.152;11.530;2023-02-01T23:52:28;8.73;;;1.67;;
56599;SDS011;51832;48.152;11.530;2023-02-01T23:57:28;6.90;;;1.65;;
